createdAt,value
2022-11-24T00:04:43.586Z,85.74
2022-11-24T00:09:50.705Z,85.79
2022-11-24T00:14:57.732Z,85.79
2022-11-24T00:20:06.057Z,85.88
2022-11-24T00:25:13.324Z,85.93
2022-11-24T00:30:20.479Z,85.90
2022-11-24T00:35:27.482Z,85.71
2022-11-24T00:40:35.187Z,85.61
2022-11-24T00:45:43.155Z,85.61
2022-11-24T00:50:58.139Z,85.65
2022-11-24T00:56:05.974Z,85.71
2022-11-24T01:01:16.631Z,85.58
2022-11-24T01:06:25.331Z,85.59
2022-11-24T01:11:55.877Z,85.64
2022-11-24T01:17:02.927Z,85.62
2022-11-24T01:22:10.077Z,85.74
2022-11-24T01:27:17.184Z,85.89
2022-11-24T01:32:24.242Z,85.79
2022-11-24T01:37:31.317Z,85.81
2022-11-24T01:42:47.723Z,85.90
2022-11-24T01:47:54.977Z,85.94
2022-11-24T01:53:02.272Z,85.76
2022-11-24T01:58:14.548Z,85.58
2022-11-24T02:03:25.705Z,85.76
2022-11-24T02:08:40.709Z,85.78
2022-11-24T02:13:49.236Z,85.88
2022-11-24T02:18:56.640Z,85.85
2022-11-24T02:24:11.203Z,85.85
2022-11-24T02:29:18.321Z,85.94
2022-11-24T02:34:25.431Z,85.74
2022-11-24T02:39:32.563Z,85.75
2022-11-24T02:44:43.547Z,85.87
2022-11-24T02:49:50.621Z,85.99
2022-11-24T02:54:57.685Z,85.95
2022-11-24T03:00:05.069Z,85.97
2022-11-24T03:05:13.249Z,86.04
2022-11-24T03:10:20.369Z,85.98
2022-11-24T03:15:27.491Z,85.92
2022-11-24T03:20:34.613Z,85.84
2022-11-24T03:25:41.700Z,85.83
2022-11-24T03:30:50.954Z,85.72
2022-11-24T03:35:58.030Z,85.87
2022-11-24T03:41:05.156Z,85.83
2022-11-24T03:46:13.498Z,85.87
2022-11-24T03:51:20.522Z,86.04
2022-11-24T03:56:28.112Z,85.96
2022-11-24T04:01:35.272Z,86.00
2022-11-24T04:06:43.065Z,85.99
2022-11-24T04:12:08.012Z,85.89
2022-11-24T04:17:15.148Z,85.98
2022-11-24T04:22:22.210Z,86.14
2022-11-24T04:27:29.424Z,86.10
2022-11-24T04:32:36.625Z,86.15
2022-11-24T04:37:43.726Z,86.12
2022-11-24T04:42:56.787Z,85.95
2022-11-24T04:48:07.232Z,85.90
2022-11-24T04:53:14.711Z,86.03
2022-11-24T04:58:21.757Z,86.10
2022-11-24T05:03:28.905Z,86.02
2022-11-24T05:08:36.063Z,85.84
2022-11-24T05:13:43.268Z,85.73
2022-11-24T05:18:50.429Z,85.85
2022-11-24T05:23:57.389Z,85.89
2022-11-24T05:29:04.592Z,86.03
2022-11-24T05:34:12.317Z,86.08
2022-11-24T05:39:20.065Z,85.89
2022-11-24T05:44:27.171Z,85.81
2022-11-24T05:49:34.352Z,85.95
2022-11-24T05:54:41.465Z,86.04
2022-11-24T05:59:48.413Z,85.92
2022-11-24T06:04:55.341Z,85.90
2022-11-24T06:10:02.395Z,85.78
2022-11-24T06:15:11.392Z,85.77
2022-11-24T06:20:18.544Z,85.65
2022-11-24T06:25:26.533Z,85.60
2022-11-24T06:30:33.667Z,85.69
2022-11-24T06:35:40.729Z,85.85
2022-11-24T06:40:48.004Z,85.94
2022-11-24T06:45:55.550Z,85.95
2022-11-24T06:51:03.804Z,85.90
2022-11-24T06:56:16.281Z,86.08
2022-11-24T07:01:25.956Z,86.04
2022-11-24T07:06:34.177Z,86.10
2022-11-24T07:11:41.982Z,86.14
2022-11-24T07:16:51.379Z,86.03
2022-11-24T07:21:58.297Z,85.97
2022-11-24T07:27:05.286Z,85.98
2022-11-24T07:32:12.301Z,85.90
2022-11-24T07:37:19.414Z,85.81
2022-11-24T07:42:26.486Z,85.75
2022-11-24T07:47:33.391Z,85.96
2022-11-24T07:52:40.591Z,85.67
2022-11-24T07:57:50.107Z,85.65
2022-11-24T08:02:57.456Z,85.68
2022-11-24T08:08:05.272Z,85.79
2022-11-24T08:13:12.240Z,85.62
2022-11-24T08:18:29.482Z,85.68
2022-11-24T08:23:36.930Z,85.75
2022-11-24T08:28:44.398Z,85.85
2022-11-24T08:33:52.354Z,85.76
2022-11-24T08:38:58.648Z,85.75
2022-11-24T08:44:05.837Z,85.85
2022-11-24T08:49:14.262Z,85.93
2022-11-24T08:54:21.925Z,85.86
2022-11-24T08:59:29.098Z,85.75
2022-11-24T09:04:36.501Z,85.92
2022-11-24T09:09:43.747Z,86.11
2022-11-24T09:14:50.711Z,86.11
2022-11-24T09:19:57.712Z,85.78
2022-11-24T09:25:06.038Z,85.79
2022-11-24T09:30:15.724Z,85.86
2022-11-24T09:35:22.678Z,85.70
2022-11-24T09:40:35.935Z,85.85
2022-11-24T09:46:05.381Z,85.80
2022-11-24T09:51:16.574Z,86.05
2022-11-24T09:56:43.704Z,85.88
2022-11-24T10:01:52.253Z,85.85
2022-11-24T10:07:13.362Z,85.89
2022-11-24T10:12:51.429Z,85.80
2022-11-24T10:18:21.231Z,85.84
2022-11-24T10:24:01.116Z,86.05
2022-11-24T10:29:22.610Z,85.86
2022-11-24T10:34:42.329Z,85.90
2022-11-24T10:40:33.505Z,85.89
2022-11-24T10:45:45.684Z,85.82
2022-11-24T10:51:24.720Z,85.76
2022-11-24T10:56:48.133Z,85.51
2022-11-24T11:01:56.407Z,85.80
2022-11-24T11:07:20.955Z,85.78
2022-11-24T11:13:01.973Z,85.71
2022-11-24T11:18:34.512Z,85.64
2022-11-24T11:23:54.357Z,85.74
2022-11-24T11:34:38.518Z,85.65
2022-11-24T11:39:49.023Z,85.81
2022-11-24T11:45:00.590Z,85.81
2022-11-24T11:50:14.552Z,85.73
2022-11-24T11:55:50.890Z,85.61
2022-11-24T12:01:07.462Z,85.78
2022-11-24T12:06:30.050Z,85.59
2022-11-24T12:11:44.382Z,85.51
2022-11-24T12:17:02.396Z,85.40
2022-11-24T12:22:20.709Z,85.33
2022-11-24T12:27:39.167Z,85.48
2022-11-24T12:33:12.984Z,85.68
2022-11-24T12:38:33.865Z,85.72
2022-11-24T12:43:43.474Z,85.64
2022-11-24T12:49:02.734Z,85.72
2022-11-24T12:54:16.937Z,85.69
2022-11-24T12:59:35.390Z,85.66
2022-11-24T13:04:48.441Z,85.46
2022-11-24T13:10:54.338Z,85.30
2022-11-24T13:22:01.241Z,85.50
2022-11-24T13:27:44.348Z,85.39
2022-11-24T13:33:03.259Z,85.62
2022-11-24T13:38:43.279Z,85.54
2022-11-24T13:44:22.826Z,85.44
2022-11-24T13:49:42.630Z,85.20
2022-11-24T13:54:49.826Z,85.12
2022-11-24T14:00:03.960Z,85.22
2022-11-24T14:05:16.105Z,85.41
2022-11-24T14:10:28.137Z,85.64
2022-11-24T14:15:36.691Z,85.29
2022-11-24T14:20:43.853Z,85.28
2022-11-24T14:25:52.906Z,85.29
2022-11-24T14:31:11.026Z,85.36
2022-11-24T14:36:19.349Z,85.41
2022-11-24T14:41:30.418Z,85.39
2022-11-24T14:46:37.894Z,85.35
2022-11-24T14:51:51.704Z,85.37
2022-11-24T14:57:09.937Z,85.34
2022-11-24T15:02:46.460Z,85.34
2022-11-24T15:08:02.876Z,85.58
2022-11-24T15:13:23.213Z,85.52
2022-11-24T15:18:42.630Z,85.29
2022-11-24T15:24:07.545Z,85.25
2022-11-24T15:29:15.431Z,85.19
2022-11-24T15:34:21.451Z,85.19
2022-11-24T15:39:30.184Z,85.15
2022-11-24T15:44:37.486Z,85.23
2022-11-24T15:49:45.832Z,85.32
2022-11-24T15:54:57.366Z,85.16
2022-11-24T16:00:05.352Z,85.19
2022-11-24T16:05:19.759Z,85.14
2022-11-24T16:10:31.056Z,85.14
2022-11-24T16:15:38.325Z,85.18
2022-11-24T16:20:45.486Z,85.20
2022-11-24T16:25:52.680Z,85.27
2022-11-24T16:30:59.694Z,85.22
2022-11-24T16:36:07.291Z,85.47
2022-11-24T16:41:14.607Z,85.21
2022-11-24T16:46:23.767Z,85.18
2022-11-24T16:51:34.942Z,85.23
2022-11-24T16:56:42.715Z,85.11
2022-11-24T17:01:50.894Z,85.26
2022-11-24T17:06:59.651Z,85.34
2022-11-24T17:12:07.103Z,85.37
2022-11-24T17:17:14.297Z,85.11
2022-11-24T17:22:21.307Z,85.12
2022-11-24T17:27:28.802Z,85.04
2022-11-24T17:32:36.029Z,85.10
2022-11-24T17:37:43.178Z,85.15
2022-11-24T17:42:50.297Z,85.06
2022-11-24T17:47:57.616Z,85.09
2022-11-24T17:53:05.199Z,85.04
2022-11-24T17:58:12.281Z,85.21
2022-11-24T18:03:19.459Z,85.13
2022-11-24T18:08:50.583Z,85.17
2022-11-24T18:14:12.831Z,85.25
2022-11-24T18:26:09.484Z,85.16
2022-11-24T18:31:21.072Z,85.09
2022-11-24T18:36:30.593Z,85.04
2022-11-24T18:41:38.557Z,85.08
2022-11-24T18:46:46.324Z,85.34
2022-11-24T18:51:53.834Z,85.43
2022-11-24T18:57:03.574Z,85.23
2022-11-24T19:02:28.354Z,85.16
2022-11-24T19:08:09.580Z,85.06
2022-11-24T19:13:35.389Z,84.95
2022-11-24T19:28:08.779Z,85.26
2022-11-24T19:33:29.052Z,85.12
2022-11-24T19:39:19.896Z,85.03
2022-11-24T19:44:36.393Z,85.05
2022-11-24T19:49:43.634Z,85.14
2022-11-24T19:54:50.577Z,85.21
2022-11-24T19:59:57.567Z,85.27
2022-11-24T20:05:07.049Z,85.29
2022-11-24T20:10:15.488Z,85.08
2022-11-24T20:15:22.399Z,85.18
2022-11-24T20:20:30.486Z,85.13
2022-11-24T20:25:39.055Z,85.01
2022-11-24T20:30:46.104Z,85.08
2022-11-24T20:35:55.612Z,85.30
2022-11-24T20:41:09.388Z,85.29
2022-11-24T20:46:22.389Z,85.16
2022-11-24T20:51:31.521Z,85.07
2022-11-24T20:56:41.133Z,85.11
2022-11-24T21:01:50.310Z,84.99
2022-11-24T21:06:57.808Z,85.05
2022-11-24T21:12:05.104Z,85.22
2022-11-24T21:17:15.121Z,85.17
2022-11-24T21:22:22.122Z,85.04
2022-11-24T21:27:29.574Z,85.05
2022-11-24T21:32:37.048Z,85.12
2022-11-24T21:37:44.314Z,85.14
2022-11-24T21:42:51.548Z,85.24
2022-11-24T21:48:00.503Z,85.20
2022-11-24T21:53:09.662Z,85.12
2022-11-24T21:58:16.721Z,85.21
2022-11-24T22:03:27.187Z,85.28
2022-11-24T22:08:34.444Z,84.85
2022-11-24T22:13:42.024Z,84.79
2022-11-24T22:18:49.260Z,84.83
2022-11-24T22:23:56.241Z,84.94
2022-11-24T22:29:03.367Z,85.05
2022-11-24T22:34:10.622Z,85.13
2022-11-24T22:39:17.845Z,84.81
2022-11-24T22:44:24.780Z,84.98
2022-11-24T22:49:31.749Z,84.98
2022-11-24T22:54:38.747Z,85.06
2022-11-24T22:59:45.907Z,85.05
2022-11-24T23:04:52.981Z,85.18
2022-11-24T23:09:59.948Z,84.97
2022-11-24T23:15:08.260Z,84.95
2022-11-24T23:20:17.126Z,84.87
2022-11-24T23:25:26.400Z,84.89
2022-11-24T23:30:35.065Z,84.97
2022-11-24T23:35:42.172Z,85.13
2022-11-24T23:40:49.299Z,85.24
2022-11-24T23:45:56.328Z,85.13
2022-11-24T23:51:08.635Z,85.09
2022-11-24T23:56:18.059Z,84.89
